createdAt,value
2023-02-12T00:00:21.223Z,18.98
2023-02-12T00:08:44.499Z,17.80
2023-02-12T00:11:15.408Z,18.80
2023-02-12T00:13:42.816Z,18.83
2023-02-12T00:16:12.189Z,17.40
2023-02-12T00:18:40.037Z,18.52
2023-02-12T00:21:09.056Z,17.45
2023-02-12T00:23:37.733Z,16.77
2023-02-12T00:26:13.125Z,16.95
2023-02-12T00:28:46.618Z,17.50
2023-02-12T00:31:17.573Z,16.98
2023-02-12T00:33:45.486Z,15.85
2023-02-12T00:36:16.343Z,17.27
2023-02-12T00:38:58.515Z,16.30
2023-02-12T00:41:26.848Z,16.08
2023-02-12T00:43:55.275Z,16.27
2023-02-12T00:46:25.514Z,16.83
2023-02-12T00:48:52.749Z,16.10
2023-02-12T00:51:21.772Z,16.85
2023-02-12T00:53:48.998Z,16.38
2023-02-12T00:56:24.726Z,16.48
2023-02-12T00:58:55.331Z,16.23
2023-02-12T01:01:22.504Z,17.25
2023-02-12T01:03:49.672Z,15.73
2023-02-12T01:06:16.874Z,15.80
2023-02-12T01:08:46.181Z,15.63
2023-02-12T01:11:14.506Z,16.30
2023-02-12T01:13:41.542Z,15.70
2023-02-12T01:16:21.775Z,15.73
2023-02-12T01:18:56.066Z,14.93
2023-02-12T01:21:31.119Z,16.27
2023-02-12T01:24:00.493Z,16.58
2023-02-12T01:26:29.610Z,16.02
2023-02-12T01:29:01.444Z,15.70
2023-02-12T01:31:31.968Z,16.25
2023-02-12T01:34:01.101Z,16.73
2023-02-12T01:36:30.514Z,16.95
2023-02-12T01:38:59.233Z,17.20
2023-02-12T01:41:28.896Z,17.52
2023-02-12T01:44:19.024Z,17.52
2023-02-12T01:46:48.413Z,18.13
2023-02-12T01:49:26.010Z,17.83
2023-02-12T01:51:59.371Z,19.08
2023-02-12T01:54:30.336Z,19.38
2023-02-12T01:57:00.291Z,18.80
2023-02-12T01:59:27.678Z,18.77
2023-02-12T02:01:55.603Z,19.13
2023-02-12T02:04:29.064Z,19.45
2023-02-12T02:07:04.783Z,19.63
2023-02-12T02:09:36.308Z,19.33
2023-02-12T02:12:22.805Z,18.67
2023-02-12T02:14:53.274Z,20.40
2023-02-12T02:17:26.386Z,20.95
2023-02-12T02:20:04.003Z,21.00
2023-02-12T02:22:53.811Z,20.42
2023-02-12T02:25:46.475Z,20.02
2023-02-12T02:28:25.610Z,19.27
2023-02-12T02:31:19.172Z,20.75
2023-02-12T02:34:05.286Z,20.65
2023-02-12T02:37:00.050Z,21.23
2023-02-12T02:39:27.667Z,20.02
2023-02-12T02:41:54.674Z,20.80
2023-02-12T02:44:31.485Z,19.75
2023-02-12T02:47:00.222Z,19.75
2023-02-12T02:49:43.317Z,20.55
2023-02-12T02:52:17.575Z,20.10
2023-02-12T02:54:49.572Z,20.25
2023-02-12T02:57:23.200Z,20.60
2023-02-12T02:59:56.095Z,20.00
2023-02-12T03:02:35.475Z,19.33
2023-02-12T03:05:11.303Z,20.60
2023-02-12T03:08:01.114Z,19.40
2023-02-12T03:10:32.670Z,19.52
2023-02-12T03:13:05.561Z,20.00
2023-02-12T03:15:38.711Z,17.67
2023-02-12T03:18:10.596Z,18.63
2023-02-12T03:20:44.919Z,18.15
2023-02-12T03:23:15.874Z,19.63
2023-02-12T03:25:54.484Z,18.97
2023-02-12T03:28:33.207Z,18.40
2023-02-12T03:31:31.007Z,18.40
2023-02-12T03:34:13.192Z,17.98
2023-02-12T03:37:03.170Z,18.73
2023-02-12T03:39:49.161Z,18.15
2023-02-12T03:45:42.538Z,17.63
2023-02-12T03:48:42.966Z,17.98
2023-02-12T03:51:29.069Z,17.88
2023-02-12T03:53:58.145Z,16.88
2023-02-12T03:56:52.548Z,17.65
2023-02-12T03:59:24.911Z,17.10
2023-02-12T04:01:54.349Z,16.85
2023-02-12T04:04:23.043Z,17.63
2023-02-12T04:06:51.165Z,16.40
2023-02-12T04:09:18.863Z,17.77
2023-02-12T04:11:45.897Z,17.33
2023-02-12T04:14:43.451Z,16.67
2023-02-12T04:17:28.846Z,16.08
2023-02-12T04:20:07.894Z,16.85
2023-02-12T04:22:41.068Z,18.10
2023-02-12T04:25:08.263Z,16.95
2023-02-12T04:28:12.492Z,16.75
2023-02-12T04:30:55.116Z,16.75
2023-02-12T04:33:25.547Z,16.73
2023-02-12T04:36:01.127Z,16.52
2023-02-12T04:38:40.450Z,16.85
2023-02-12T04:41:08.005Z,16.48
2023-02-12T04:43:37.497Z,15.95
2023-02-12T04:46:07.359Z,15.90
2023-02-12T04:48:35.099Z,16.52
2023-02-12T04:51:03.054Z,17.00
2023-02-12T04:53:30.160Z,15.90
2023-02-12T04:55:57.587Z,16.02
2023-02-12T04:58:24.827Z,16.05
2023-02-12T05:00:51.881Z,16.42
2023-02-12T05:03:19.038Z,15.93
2023-02-12T05:05:46.133Z,15.93
2023-02-12T05:08:13.308Z,16.58
2023-02-12T05:10:40.268Z,15.07
2023-02-12T05:13:07.329Z,15.63
2023-02-12T05:15:34.397Z,14.85
2023-02-12T05:18:01.466Z,15.68
2023-02-12T05:20:28.566Z,15.30
2023-02-12T05:22:55.571Z,15.07
2023-02-12T05:25:23.035Z,14.77
2023-02-12T05:27:50.105Z,15.57
2023-02-12T05:30:17.365Z,15.30
2023-02-12T05:32:44.477Z,14.98
2023-02-12T05:35:11.432Z,14.52
2023-02-12T05:37:38.366Z,14.85
2023-02-12T05:40:07.106Z,15.20
2023-02-12T05:42:34.634Z,15.35
2023-02-12T05:45:01.812Z,14.80
2023-02-12T05:47:28.839Z,14.63
2023-02-12T05:49:55.913Z,15.10
2023-02-12T05:52:22.885Z,14.63
2023-02-12T05:54:50.580Z,14.32
2023-02-12T05:57:17.828Z,14.75
2023-02-12T05:59:45.212Z,15.50
2023-02-12T06:02:12.308Z,14.07
2023-02-12T06:04:39.327Z,14.75
2023-02-12T06:07:07.433Z,14.63
2023-02-12T06:09:35.318Z,14.27
2023-02-12T06:12:02.730Z,14.38
2023-02-12T06:14:31.892Z,14.38
2023-02-12T06:16:59.207Z,13.75
2023-02-12T06:19:26.398Z,14.05
2023-02-12T06:21:56.259Z,14.00
2023-02-12T06:24:24.568Z,13.40
2023-02-12T06:26:53.129Z,14.43
2023-02-12T06:29:20.900Z,14.15
2023-02-12T06:31:56.961Z,14.10
2023-02-12T06:34:33.126Z,13.90
2023-02-12T06:37:00.363Z,14.52
2023-02-12T06:39:27.552Z,13.82
2023-02-12T06:41:54.773Z,13.60
2023-02-12T06:44:27.356Z,13.65
2023-02-12T06:46:56.072Z,14.60
2023-02-12T06:49:23.105Z,14.52
2023-02-12T06:54:44.774Z,13.32
2023-02-12T06:57:13.082Z,13.40
2023-02-12T06:59:42.520Z,13.85
2023-02-12T07:02:15.886Z,14.30
2023-02-12T07:04:42.955Z,14.02
2023-02-12T07:07:10.169Z,13.75
2023-02-12T07:09:37.246Z,14.10
2023-02-12T07:12:08.699Z,13.82
2023-02-12T07:14:36.641Z,13.07
2023-02-12T07:17:05.663Z,14.77
2023-02-12T07:19:32.815Z,13.35
2023-02-12T07:21:59.950Z,14.32
2023-02-12T07:24:27.155Z,13.43
2023-02-12T07:26:58.817Z,13.93
2023-02-12T07:31:53.905Z,13.57
2023-02-12T07:34:21.294Z,14.07
2023-02-12T07:36:48.470Z,14.13
2023-02-12T07:39:15.621Z,13.70
2023-02-12T07:41:42.708Z,13.52
2023-02-12T07:44:12.234Z,14.20
2023-02-12T07:46:48.576Z,12.80
2023-02-12T07:49:18.346Z,13.02
2023-02-12T07:51:49.914Z,14.25
2023-02-12T07:54:17.758Z,13.68
2023-02-12T07:56:47.460Z,13.82
2023-02-12T07:59:17.375Z,13.90
2023-02-12T08:46:31.774Z,13.43
2023-02-12T08:49:01.803Z,13.00
2023-02-12T08:51:32.615Z,12.95
2023-02-12T08:54:05.900Z,13.82
2023-02-12T08:56:34.531Z,12.95
2023-02-12T08:59:04.179Z,12.15
2023-02-12T09:01:33.626Z,12.20
2023-02-12T09:04:01.271Z,12.90
2023-02-12T09:06:28.369Z,12.65
2023-02-12T09:08:55.957Z,12.50
2023-02-12T09:11:30.790Z,12.57
2023-02-12T09:14:00.529Z,12.35
2023-02-12T09:16:29.059Z,13.25
2023-02-12T09:18:56.385Z,12.35
2023-02-12T09:21:23.978Z,13.27
2023-02-12T09:23:51.082Z,13.05
2023-02-12T09:26:21.395Z,13.15
2023-02-12T09:28:50.112Z,12.77
2023-02-12T09:31:26.552Z,12.98
2023-02-12T09:33:59.123Z,13.70
2023-02-12T09:36:27.028Z,13.32
2023-02-12T09:38:54.406Z,13.48
2023-02-12T09:41:52.773Z,12.57
2023-02-12T09:44:25.714Z,13.57
2023-02-12T09:47:23.972Z,13.63
2023-02-12T10:00:36.724Z,13.38
2023-02-12T10:03:10.769Z,14.18
2023-02-12T10:05:51.574Z,13.40
2023-02-12T10:12:15.983Z,14.20
2023-02-12T10:15:16.493Z,12.98
2023-02-12T10:17:57.819Z,13.57
2023-02-12T10:20:54.540Z,13.30
2023-02-12T10:23:30.999Z,12.95
2023-02-12T10:26:03.319Z,13.88
2023-02-12T10:28:40.598Z,13.32
2023-02-12T10:31:32.305Z,13.43
2023-02-12T10:33:59.502Z,13.48
2023-02-12T10:36:49.098Z,14.20
2023-02-12T10:39:21.133Z,13.18
2023-02-12T10:41:53.942Z,12.88
2023-02-12T10:44:21.271Z,12.77
2023-02-12T10:46:48.285Z,13.13
2023-02-12T10:49:18.098Z,13.68
2023-02-12T10:51:57.587Z,12.77
2023-02-12T10:54:44.676Z,12.60
2023-02-12T10:57:24.898Z,12.07
2023-02-12T10:59:54.565Z,12.55
2023-02-12T11:02:28.397Z,12.88
2023-02-12T11:04:58.280Z,13.30
2023-02-12T11:07:27.770Z,14.45
2023-02-12T11:09:59.796Z,12.90
2023-02-12T11:12:26.804Z,13.27
2023-02-12T11:14:57.524Z,13.40
2023-02-12T11:17:40.862Z,14.13
2023-02-12T11:20:17.460Z,13.45
2023-02-12T11:23:30.117Z,13.48
2023-02-12T11:26:27.168Z,12.73
2023-02-12T11:28:59.771Z,12.63
2023-02-12T11:31:32.575Z,13.50
2023-02-12T11:34:18.051Z,12.35
2023-02-12T11:36:52.196Z,12.55
2023-02-12T11:39:49.506Z,13.25
2023-02-12T11:42:24.651Z,12.13
2023-02-12T11:47:05.482Z,12.93
2023-02-12T11:52:26.279Z,12.85
2023-02-12T11:55:44.527Z,12.70
2023-02-12T11:58:22.158Z,12.48
2023-02-12T12:01:28.381Z,11.63
2023-02-12T12:04:06.935Z,12.50
2023-02-12T12:06:54.692Z,12.15
2023-02-12T12:37:27.478Z,11.40
2023-02-12T12:40:26.328Z,11.32
2023-02-12T12:47:05.382Z,11.32
2023-02-12T12:49:42.192Z,11.65
2023-02-12T12:52:47.664Z,11.40
2023-02-12T12:55:44.596Z,11.88
2023-02-12T12:58:29.858Z,11.70
2023-02-12T13:01:41.808Z,12.77
2023-02-12T13:04:46.208Z,13.82
2023-02-12T13:07:35.198Z,13.95
2023-02-12T13:10:25.802Z,12.77
2023-02-12T13:13:26.653Z,13.35
2023-02-12T13:16:17.373Z,13.80
2023-02-12T13:19:09.839Z,13.55
2023-02-12T13:21:43.041Z,14.02
2023-02-12T13:24:36.452Z,14.07
2023-02-12T13:27:33.284Z,14.07
2023-02-12T13:30:05.263Z,13.00
2023-02-12T13:35:58.327Z,12.23
2023-02-12T13:38:37.843Z,11.25
2023-02-12T13:41:34.123Z,12.00
2023-02-12T13:44:29.070Z,11.25
2023-02-12T13:47:21.197Z,11.35
2023-02-12T13:50:03.764Z,10.57
2023-02-12T13:52:40.253Z,10.30
2023-02-12T13:55:26.464Z,11.05
2023-02-12T13:58:31.362Z,10.23
2023-02-12T14:01:04.017Z,10.20
2023-02-12T14:03:35.491Z,10.15
2023-02-12T14:06:20.528Z,9.68
2023-02-12T14:08:52.718Z,9.85
2023-02-12T14:11:24.409Z,9.35
2023-02-12T14:13:56.531Z,9.07
2023-02-12T14:16:29.925Z,8.88
2023-02-12T14:19:44.756Z,9.15
2023-02-12T14:22:45.185Z,9.00
2023-02-12T14:25:24.689Z,8.50
2023-02-12T14:28:13.783Z,8.10
2023-02-12T14:30:42.333Z,8.15
2023-02-12T14:33:16.910Z,7.88
2023-02-12T14:35:47.126Z,8.15
2023-02-12T14:38:20.176Z,8.30
2023-02-12T14:40:48.961Z,8.20
2023-02-12T14:43:57.909Z,8.60
2023-02-12T14:46:25.423Z,8.05
2023-02-12T14:48:57.018Z,8.10
2023-02-12T14:51:52.174Z,8.82
2023-02-12T14:54:42.596Z,7.60
2023-02-12T14:57:35.268Z,7.22
2023-02-12T15:00:18.099Z,7.75
2023-02-12T15:02:53.924Z,7.70
2023-02-12T15:05:31.451Z,8.07
2023-02-12T15:08:08.215Z,7.30
2023-02-12T15:10:47.750Z,7.93
2023-02-12T15:13:50.187Z,8.15
2023-02-12T15:16:52.374Z,8.15
2023-02-12T15:22:30.109Z,7.57
2023-02-12T15:25:25.597Z,7.55
2023-02-12T15:27:57.286Z,7.68
2023-02-12T15:30:28.409Z,8.02
2023-02-12T15:33:02.774Z,8.10
2023-02-12T15:35:37.496Z,8.10
2023-02-12T15:38:07.689Z,8.30
2023-02-12T15:40:36.169Z,7.35
2023-02-12T15:43:16.976Z,8.25
2023-02-12T15:45:51.573Z,7.93
2023-02-12T15:48:23.683Z,8.00
2023-02-12T15:51:02.375Z,7.70
2023-02-12T15:53:30.874Z,7.47
2023-02-12T15:56:01.731Z,7.47
2023-02-12T15:58:41.791Z,7.43
2023-02-12T16:01:18.876Z,7.85
2023-02-12T16:04:04.075Z,7.93
2023-02-12T16:06:37.210Z,8.02
2023-02-12T16:09:09.824Z,7.53
2023-02-12T16:11:38.024Z,7.70
2023-02-12T16:32:33.793Z,6.88
2023-02-12T16:35:10.366Z,7.05
2023-02-12T16:37:38.287Z,6.53
2023-02-12T16:40:14.232Z,6.95
2023-02-12T16:42:49.236Z,6.65
2023-02-12T16:45:29.881Z,6.63
2023-02-12T16:48:09.668Z,6.15
2023-02-12T16:50:51.719Z,6.40
2023-02-12T16:56:28.928Z,6.15
2023-02-12T17:05:08.026Z,6.15
2023-02-12T17:07:35.250Z,6.03
2023-02-12T17:10:05.233Z,5.95
2023-02-12T17:12:35.113Z,5.68
2023-02-12T17:15:05.976Z,5.75
2023-02-12T17:17:33.157Z,5.40
2023-02-12T17:20:00.538Z,5.95
2023-02-12T17:23:04.022Z,5.55
2023-02-12T17:25:36.373Z,5.68
2023-02-12T17:29:07.697Z,5.93
2023-02-12T17:31:39.353Z,5.53
2023-02-12T17:34:09.512Z,5.97
2023-02-12T17:36:38.366Z,5.55
2023-02-12T17:39:07.206Z,5.63
2023-02-12T17:41:35.977Z,5.25
2023-02-12T17:44:04.478Z,5.60
2023-02-12T17:46:31.943Z,5.55
2023-02-12T17:48:59.829Z,5.65
2023-02-12T17:51:27.223Z,5.55
2023-02-12T17:53:54.477Z,5.18
2023-02-12T17:56:23.312Z,5.70
2023-02-12T17:58:50.305Z,5.13
2023-02-12T18:01:20.011Z,5.72
2023-02-12T18:03:48.160Z,5.10
2023-02-12T18:10:42.604Z,5.05
2023-02-12T18:13:10.500Z,4.85
2023-02-12T18:15:39.613Z,4.80
2023-02-12T18:18:06.780Z,4.95
2023-02-12T18:20:34.333Z,5.10
2023-02-12T18:23:01.565Z,4.47
2023-02-12T18:25:28.922Z,5.30
2023-02-12T18:27:55.944Z,4.88
2023-02-12T18:30:23.203Z,5.22
2023-02-12T18:32:50.252Z,4.65
2023-02-12T18:35:17.375Z,4.93
2023-02-12T18:37:44.528Z,4.57
2023-02-12T18:40:12.248Z,5.15
2023-02-12T18:42:39.622Z,4.78
2023-02-12T18:45:07.591Z,5.07
2023-02-12T18:47:34.807Z,4.70
2023-02-12T18:50:01.809Z,4.68
2023-02-12T18:52:28.953Z,4.13
2023-02-12T18:54:59.058Z,4.25
2023-02-12T18:57:26.709Z,5.13
2023-02-12T18:59:53.955Z,5.00
2023-02-12T19:02:21.171Z,4.72
2023-02-12T19:04:48.480Z,4.40
2023-02-12T19:07:15.822Z,4.80
2023-02-12T19:09:44.891Z,4.20
2023-02-12T19:21:40.824Z,4.75
2023-02-12T19:24:07.925Z,4.47
2023-02-12T19:26:36.155Z,4.60
2023-02-12T19:29:05.071Z,4.53
2023-02-12T19:31:35.154Z,4.38
2023-02-12T19:34:06.140Z,4.22
2023-02-12T19:36:36.003Z,4.63
2023-02-12T19:39:06.088Z,4.25
2023-02-12T23:59:35.053Z,3.22
